sensor_id;sensor_type;location;lat;lon;timestamp;pressure;altitude;pressure_sealevel;temperature;humidity
15884;BME280;8040;50.254;10.960;2022-11-14T00:01:35;98416.47;;;6.85;72.40
15884;BME280;8040;50.254;10.960;2022-11-14T00:04:19;98405.19;;;6.88;72.42
15884;BME280;8040;50.254;10.960;2022-11-14T00:07:03;98404.91;;;6.85;71.56
15884;BME280;8040;50.254;10.960;2022-11-14T00:09:47;98398.16;;;6.87;71.79
15884;BME280;8040;50.254;10.960;2022-11-14T00:12:31;98397.63;;;6.85;71.90
15884;BME280;8040;50.254;10.960;2022-11-14T00:15:15;98401.41;;;6.89;72.24
15884;BME280;8040;50.254;10.960;2022-11-14T00:17:59;98391.16;;;6.86;71.81
15884;BME280;8040;50.254;10.960;2022-11-14T00:20:43;98382.25;;;6.81;71.40
15884;BME280;8040;50.254;10.960;2022-11-14T00:23:27;98375.00;;;6.71;72.14
15884;BME280;8040;50.254;10.960;2022-11-14T00:26:10;98380.91;;;6.73;72.63
15884;BME280;8040;50.254;10.960;2022-11-14T00:28:55;98379.03;;;6.74;72.68
15884;BME280;8040;50.254;10.960;2022-11-14T00:31:39;98378.22;;;6.83;72.57
15884;BME280;8040;50.254;10.960;2022-11-14T00:34:22;98372.28;;;6.76;72.30
15884;BME280;8040;50.254;10.960;2022-11-14T00:37:06;98387.66;;;6.81;72.13
15884;BME280;8040;50.254;10.960;2022-11-14T00:39:50;98374.72;;;6.73;72.17
15884;BME280;8040;50.254;10.960;2022-11-14T00:42:34;98368.81;;;6.66;72.15
15884;BME280;8040;50.254;10.960;2022-11-14T00:45:18;98372.59;;;6.65;72.39
15884;BME280;8040;50.254;10.960;2022-11-14T00:48:02;98364.50;;;6.50;72.80
15884;BME280;8040;50.254;10.960;2022-11-14T00:50:46;98368.81;;;6.46;72.55
15884;BME280;8040;50.254;10.960;2022-11-14T00:53:30;98378.81;;;6.55;72.33
15884;BME280;8040;50.254;10.960;2022-11-14T00:56:14;98367.50;;;6.43;72.12
15884;BME280;8040;50.254;10.960;2022-11-14T00:58:58;98369.63;;;6.51;72.19
15884;BME280;8040;50.254;10.960;2022-11-14T01:01:42;98359.41;;;6.43;72.04
15884;BME280;8040;50.254;10.960;2022-11-14T01:04:27;98361.00;;;6.39;72.20
15884;BME280;8040;50.254;10.960;2022-11-14T01:07:11;98366.13;;;6.41;72.45
15884;BME280;8040;50.254;10.960;2022-11-14T01:09:55;98341.34;;;6.24;72.45
15884;BME280;8040;50.254;10.960;2022-11-14T01:12:39;98352.13;;;6.24;72.38
15884;BME280;8040;50.254;10.960;2022-11-14T01:15:23;98345.91;;;6.18;73.45
15884;BME280;8040;50.254;10.960;2022-11-14T01:18:10;98345.38;;;6.16;74.02
15884;BME280;8040;50.254;10.960;2022-11-14T01:20:55;98348.06;;;6.21;73.91
15884;BME280;8040;50.254;10.960;2022-11-14T01:23:40;98354.00;;;6.23;74.08
15884;BME280;8040;50.254;10.960;2022-11-14T01:26:24;98337.81;;;6.18;73.82
15884;BME280;8040;50.254;10.960;2022-11-14T01:29:08;98324.13;;;6.10;74.29
15884;BME280;8040;50.254;10.960;2022-11-14T01:31:52;98343.22;;;6.23;74.14
15884;BME280;8040;50.254;10.960;2022-11-14T01:34:36;98335.69;;;6.15;74.29
15884;BME280;8040;50.254;10.960;2022-11-14T01:37:20;98340.25;;;6.25;74.47
15884;BME280;8040;50.254;10.960;2022-11-14T01:40:05;98335.16;;;6.28;74.33
15884;BME280;8040;50.254;10.960;2022-11-14T01:43:22;98322.75;;;6.27;74.12
15884;BME280;8040;50.254;10.960;2022-11-14T01:49:23;98324.63;;;6.27;73.35
15884;BME280;8040;50.254;10.960;2022-11-14T01:52:33;98303.09;;;6.12;73.91
15884;BME280;8040;50.254;10.960;2022-11-14T01:55:18;98303.91;;;6.07;74.20
15884;BME280;8040;50.254;10.960;2022-11-14T01:58:02;98302.56;;;6.15;74.41
15884;BME280;8040;50.254;10.960;2022-11-14T02:00:46;98308.22;;;6.18;74.13
15884;BME280;8040;50.254;10.960;2022-11-14T02:03:30;98305.00;;;6.21;74.00
15884;BME280;8040;50.254;10.960;2022-11-14T02:06:18;98302.81;;;6.23;74.18
15884;BME280;8040;50.254;10.960;2022-11-14T02:09:05;98301.47;;;6.21;74.54
15884;BME280;8040;50.254;10.960;2022-11-14T02:11:51;98284.53;;;6.15;74.06
15884;BME280;8040;50.254;10.960;2022-11-14T02:14:36;98287.22;;;6.20;74.17
15884;BME280;8040;50.254;10.960;2022-11-14T02:17:22;98287.75;;;6.17;74.11
15884;BME280;8040;50.254;10.960;2022-11-14T02:22:54;98278.88;;;6.07;73.82
15884;BME280;8040;50.254;10.960;2022-11-14T02:25:38;98295.03;;;6.07;74.08
15884;BME280;8040;50.254;10.960;2022-11-14T02:28:23;98270.25;;;5.95;74.36
15884;BME280;8040;50.254;10.960;2022-11-14T02:31:07;98276.72;;;5.99;74.00
15884;BME280;8040;50.254;10.960;2022-11-14T02:33:51;98290.97;;;5.99;74.31
15884;BME280;8040;50.254;10.960;2022-11-14T02:36:35;98268.38;;;5.90;74.00
15884;BME280;8040;50.254;10.960;2022-11-14T02:39:19;98270.53;;;5.88;73.99
15884;BME280;8040;50.254;10.960;2022-11-14T02:42:03;98268.09;;;5.82;74.31
15884;BME280;8040;50.254;10.960;2022-11-14T02:44:47;98270.81;;;5.92;74.07
15884;BME280;8040;50.254;10.960;2022-11-14T02:47:31;98278.31;;;5.95;73.74
15884;BME280;8040;50.254;10.960;2022-11-14T02:50:16;98260.25;;;5.75;74.46
15884;BME280;8040;50.254;10.960;2022-11-14T02:53:00;98269.44;;;5.84;74.00
15884;BME280;8040;50.254;10.960;2022-11-14T02:55:44;98265.91;;;5.74;73.85
15884;BME280;8040;50.254;10.960;2022-11-14T02:58:28;98276.97;;;5.87;73.91
15884;BME280;8040;50.254;10.960;2022-11-14T03:01:12;98287.22;;;5.85;74.39
15884;BME280;8040;50.254;10.960;2022-11-14T03:03:56;98274.84;;;5.94;74.07
15884;BME280;8040;50.254;10.960;2022-11-14T03:06:40;98287.22;;;5.95;73.39
15884;BME280;8040;50.254;10.960;2022-11-14T03:09:23;98271.88;;;5.86;73.79
15884;BME280;8040;50.254;10.960;2022-11-14T03:12:08;98274.78;;;5.74;74.08
15884;BME280;8040;50.254;10.960;2022-11-14T03:14:52;98285.03;;;5.77;74.15
15884;BME280;8040;50.254;10.960;2022-11-14T03:17:36;98289.59;;;5.77;74.08
15884;BME280;8040;50.254;10.960;2022-11-14T03:20:20;98275.31;;;5.71;74.12
15884;BME280;8040;50.254;10.960;2022-11-14T03:23:04;98263.47;;;5.67;74.05
15884;BME280;8040;50.254;10.960;2022-11-14T03:25:48;98272.63;;;5.66;73.81
15884;BME280;8040;50.254;10.960;2022-11-14T03:28:32;98277.72;;;5.63;74.00
15884;BME280;8040;50.254;10.960;2022-11-14T03:31:16;98282.28;;;5.62;74.35
15884;BME280;8040;50.254;10.960;2022-11-14T03:34:00;98274.50;;;5.66;74.36
15884;BME280;8040;50.254;10.960;2022-11-14T03:36:44;98281.22;;;5.68;74.07
15884;BME280;8040;50.254;10.960;2022-11-14T03:39:28;98268.56;;;5.59;73.55
15884;BME280;8040;50.254;10.960;2022-11-14T03:42:12;98252.16;;;5.40;73.94
15884;BME280;8040;50.254;10.960;2022-11-14T03:44:56;98267.47;;;5.45;74.64
15884;BME280;8040;50.254;10.960;2022-11-14T03:47:40;98265.56;;;5.45;74.35
15884;BME280;8040;50.254;10.960;2022-11-14T03:50:24;98266.13;;;5.57;74.55
15884;BME280;8040;50.254;10.960;2022-11-14T03:53:08;98252.44;;;5.49;73.85
15884;BME280;8040;50.254;10.960;2022-11-14T03:55:54;98258.59;;;5.49;72.99
15884;BME280;8040;50.254;10.960;2022-11-14T03:58:38;98258.84;;;5.33;73.74
15884;BME280;8040;50.254;10.960;2022-11-14T04:01:22;98256.41;;;5.26;74.16
15884;BME280;8040;50.254;10.960;2022-11-14T04:04:06;98257.78;;;5.39;74.15
15884;BME280;8040;50.254;10.960;2022-11-14T04:06:49;98235.16;;;5.30;74.17
15884;BME280;8040;50.254;10.960;2022-11-14T04:09:33;98224.66;;;5.23;74.07
15884;BME280;8040;50.254;10.960;2022-11-14T04:12:17;98234.63;;;5.33;73.78
15884;BME280;8040;50.254;10.960;2022-11-14T04:15:01;98238.69;;;5.40;73.85
15884;BME280;8040;50.254;10.960;2022-11-14T04:17:46;98231.69;;;5.34;74.11
15884;BME280;8040;50.254;10.960;2022-11-14T04:20:30;98228.44;;;5.22;74.26
15884;BME280;8040;50.254;10.960;2022-11-14T04:23:14;98223.06;;;5.22;74.27
15884;BME280;8040;50.254;10.960;2022-11-14T04:25:58;98235.97;;;5.30;73.49
15884;BME280;8040;50.254;10.960;2022-11-14T04:28:42;98226.81;;;5.26;73.00
15884;BME280;8040;50.254;10.960;2022-11-14T04:31:26;98222.78;;;5.24;73.38
15884;BME280;8040;50.254;10.960;2022-11-14T04:34:10;98195.84;;;5.04;73.98
15884;BME280;8040;50.254;10.960;2022-11-14T04:36:54;98219.25;;;5.03;74.11
15884;BME280;8040;50.254;10.960;2022-11-14T04:39:38;98221.13;;;5.08;74.41
15884;BME280;8040;50.254;10.960;2022-11-14T04:42:22;98217.34;;;5.04;74.25
15884;BME280;8040;50.254;10.960;2022-11-14T04:45:07;98223.00;;;5.02;74.75
15884;BME280;8040;50.254;10.960;2022-11-14T04:47:51;98231.63;;;5.09;74.90
15884;BME280;8040;50.254;10.960;2022-11-14T04:50:35;98207.41;;;4.99;74.78
15884;BME280;8040;50.254;10.960;2022-11-14T04:53:19;98221.66;;;5.05;75.07
15884;BME280;8040;50.254;10.960;2022-11-14T04:56:03;98228.94;;;5.04;74.47
15884;BME280;8040;50.254;10.960;2022-11-14T04:58:48;98217.88;;;4.96;74.55
15884;BME280;8040;50.254;10.960;2022-11-14T05:01:32;98212.22;;;5.02;74.91
15884;BME280;8040;50.254;10.960;2022-11-14T05:04:16;98216.00;;;5.01;75.15
15884;BME280;8040;50.254;10.960;2022-11-14T05:07:00;98201.47;;;4.92;74.96
15884;BME280;8040;50.254;10.960;2022-11-14T05:09:44;98205.78;;;4.98;75.45
15884;BME280;8040;50.254;10.960;2022-11-14T05:12:28;98222.25;;;5.12;74.71
15884;BME280;8040;50.254;10.960;2022-11-14T05:15:12;98202.31;;;5.03;74.95
15884;BME280;8040;50.254;10.960;2022-11-14T05:17:56;98198.25;;;5.00;75.16
15884;BME280;8040;50.254;10.960;2022-11-14T05:20:41;98191.81;;;5.01;74.82
15884;BME280;8040;50.254;10.960;2022-11-14T05:23:26;98191.00;;;4.96;75.22
15884;BME280;8040;50.254;10.960;2022-11-14T05:26:13;98181.03;;;4.86;75.14
15884;BME280;8040;50.254;10.960;2022-11-14T05:28:58;98196.09;;;4.92;75.47
15884;BME280;8040;50.254;10.960;2022-11-14T05:31:42;98205.81;;;5.08;75.41
15884;BME280;8040;50.254;10.960;2022-11-14T05:34:26;98196.69;;;5.09;74.76
15884;BME280;8040;50.254;10.960;2022-11-14T05:37:10;98197.47;;;5.10;75.43
15884;BME280;8040;50.254;10.960;2022-11-14T05:39:54;98194.25;;;5.08;74.92
15884;BME280;8040;50.254;10.960;2022-11-14T05:42:38;98185.66;;;5.06;75.03
15884;BME280;8040;50.254;10.960;2022-11-14T05:45:22;98184.31;;;5.03;75.09
15884;BME280;8040;50.254;10.960;2022-11-14T05:48:06;98198.03;;;5.12;75.56
15884;BME280;8040;50.254;10.960;2022-11-14T05:50:58;98182.41;;;5.04;76.36
15884;BME280;8040;50.254;10.960;2022-11-14T05:53:45;98196.13;;;5.12;76.87
15884;BME280;8040;50.254;10.960;2022-11-14T05:56:29;98193.97;;;5.14;77.29
15884;BME280;8040;50.254;10.960;2022-11-14T05:59:13;98187.53;;;5.10;77.74
15884;BME280;8040;50.254;10.960;2022-11-14T06:01:57;98196.13;;;5.12;78.19
15884;BME280;8040;50.254;10.960;2022-11-14T06:04:41;98206.94;;;5.22;77.78
15884;BME280;8040;50.254;10.960;2022-11-14T06:07:27;98198.59;;;5.19;77.68
15884;BME280;8040;50.254;10.960;2022-11-14T06:10:11;98212.81;;;5.19;77.87
15884;BME280;8040;50.254;10.960;2022-11-14T06:12:56;98211.22;;;5.23;77.67
15884;BME280;8040;50.254;10.960;2022-11-14T06:15:40;98218.75;;;5.21;77.64
15884;BME280;8040;50.254;10.960;2022-11-14T06:18:24;98230.03;;;5.18;78.02
15884;BME280;8040;50.254;10.960;2022-11-14T06:21:16;98215.50;;;5.19;78.00
15884;BME280;8040;50.254;10.960;2022-11-14T06:24:01;98210.13;;;5.14;78.36
15884;BME280;8040;50.254;10.960;2022-11-14T06:26:45;98231.13;;;5.32;78.52
15884;BME280;8040;50.254;10.960;2022-11-14T06:29:29;98233.81;;;5.32;78.81
15884;BME280;8040;50.254;10.960;2022-11-14T06:32:13;98233.03;;;5.32;78.96
15884;BME280;8040;50.254;10.960;2022-11-14T06:34:57;98247.31;;;5.47;79.91
15884;BME280;8040;50.254;10.960;2022-11-14T06:37:42;98248.69;;;5.55;79.81
15884;BME280;8040;50.254;10.960;2022-11-14T06:40:26;98241.41;;;5.60;80.01
15884;BME280;8040;50.254;10.960;2022-11-14T06:43:10;98266.22;;;5.82;80.37
15884;BME280;8040;50.254;10.960;2022-11-14T06:45:54;98272.94;;;5.90;79.92
15884;BME280;8040;50.254;10.960;2022-11-14T06:48:39;98275.38;;;5.96;80.00
15884;BME280;8040;50.254;10.960;2022-11-14T06:51:23;98276.44;;;6.05;80.21
15884;BME280;8040;50.254;10.960;2022-11-14T06:54:10;98279.69;;;6.07;79.73
15884;BME280;8040;50.254;10.960;2022-11-14T06:56:54;98284.50;;;6.10;79.70
15884;BME280;8040;50.254;10.960;2022-11-14T06:59:38;98269.97;;;6.11;80.04
15884;BME280;8040;50.254;10.960;2022-11-14T07:02:21;98272.41;;;6.18;80.05
15884;BME280;8040;50.254;10.960;2022-11-14T07:05:05;98273.19;;;6.23;80.03
15884;BME280;8040;50.254;10.960;2022-11-14T07:07:49;98271.03;;;6.40;80.03
15884;BME280;8040;50.254;10.960;2022-11-14T07:10:33;98280.16;;;6.54;80.07
15884;BME280;8040;50.254;10.960;2022-11-14T07:13:17;98282.00;;;6.69;79.91
15884;BME280;8040;50.254;10.960;2022-11-14T07:16:01;98289.56;;;6.77;78.90
15884;BME280;8040;50.254;10.960;2022-11-14T07:18:46;98290.34;;;6.72;78.21
15884;BME280;8040;50.254;10.960;2022-11-14T07:21:30;98280.41;;;6.63;78.03
15884;BME280;8040;50.254;10.960;2022-11-14T07:24:16;98276.91;;;6.62;78.13
15884;BME280;8040;50.254;10.960;2022-11-14T07:27:00;98282.56;;;6.66;78.57
15884;BME280;8040;50.254;10.960;2022-11-14T07:29:44;98281.75;;;6.65;78.97
15884;BME280;8040;50.254;10.960;2022-11-14T07:32:28;98274.44;;;6.76;79.15
15884;BME280;8040;50.254;10.960;2022-11-14T07:35:12;98266.06;;;6.82;79.22
15884;BME280;8040;50.254;10.960;2022-11-14T07:38:00;98253.09;;;6.94;78.78
15884;BME280;8040;50.254;10.960;2022-11-14T07:40:51;98269.78;;;7.01;78.86
15884;BME280;8040;50.254;10.960;2022-11-14T07:43:35;98271.38;;;7.07;79.01
15884;BME280;8040;50.254;10.960;2022-11-14T07:46:19;98268.13;;;7.10;78.90
15884;BME280;8040;50.254;10.960;2022-11-14T07:49:03;98284.28;;;7.15;79.13
15884;BME280;8040;50.254;10.960;2022-11-14T07:51:47;98282.66;;;7.19;79.24
15884;BME280;8040;50.254;10.960;2022-11-14T07:54:31;98272.59;;;7.29;78.75
15884;BME280;8040;50.254;10.960;2022-11-14T07:57:16;98279.03;;;7.43;78.58
15884;BME280;8040;50.254;10.960;2022-11-14T08:00:00;98259.56;;;7.46;78.50
15884;BME280;8040;50.254;10.960;2022-11-14T08:02:44;98259.78;;;7.55;77.91
15884;BME280;8040;50.254;10.960;2022-11-14T08:05:28;98256.25;;;7.59;77.70
15884;BME280;8040;50.254;10.960;2022-11-14T08:08:15;98265.72;;;7.57;77.49
15884;BME280;8040;50.254;10.960;2022-11-14T08:11:00;98240.38;;;7.53;77.28
15884;BME280;8040;50.254;10.960;2022-11-14T08:13:43;98245.16;;;7.66;77.10
15884;BME280;8040;50.254;10.960;2022-11-14T08:16:27;98246.16;;;7.75;76.68
15884;BME280;8040;50.254;10.960;2022-11-14T08:19:11;98251.50;;;7.80;76.61
15884;BME280;8040;50.254;10.960;2022-11-14T08:21:55;98258.03;;;7.74;76.59
15884;BME280;8040;50.254;10.960;2022-11-14T08:24:39;98273.13;;;7.80;76.68
15884;BME280;8040;50.254;10.960;2022-11-14T08:27:24;98286.59;;;7.85;76.86
15884;BME280;8040;50.254;10.960;2022-11-14T08:30:08;98280.81;;;7.96;76.30
15884;BME280;8040;50.254;10.960;2022-11-14T08:32:52;98281.31;;;8.03;75.95
15884;BME280;8040;50.254;10.960;2022-11-14T08:35:36;98282.56;;;8.16;75.82
15884;BME280;8040;50.254;10.960;2022-11-14T08:38:20;98274.19;;;8.22;75.44
15884;BME280;8040;50.254;10.960;2022-11-14T08:41:04;98273.78;;;8.34;75.22
15884;BME280;8040;50.254;10.960;2022-11-14T08:43:48;98263.16;;;8.42;74.79
15884;BME280;8040;50.254;10.960;2022-11-14T08:46:32;98268.31;;;8.44;74.52
15884;BME280;8040;50.254;10.960;2022-11-14T08:49:19;98258.03;;;8.41;73.99
15884;BME280;8040;50.254;10.960;2022-11-14T08:52:03;98270.22;;;8.38;74.33
15884;BME280;8040;50.254;10.960;2022-11-14T08:54:50;98260.25;;;8.39;74.28
15884;BME280;8040;50.254;10.960;2022-11-14T08:57:34;98268.00;;;8.45;73.98
15884;BME280;8040;50.254;10.960;2022-11-14T09:00:18;98262.91;;;8.44;73.72
15884;BME280;8040;50.254;10.960;2022-11-14T09:03:06;98279.13;;;8.67;73.92
15884;BME280;8040;50.254;10.960;2022-11-14T09:05:51;98272.94;;;8.90;73.53
15884;BME280;8040;50.254;10.960;2022-11-14T09:08:35;98272.06;;;8.95;72.34
15884;BME280;8040;50.254;10.960;2022-11-14T09:11:19;98269.94;;;8.92;72.22
15884;BME280;8040;50.254;10.960;2022-11-14T09:14:03;98263.31;;;9.03;72.25
15884;BME280;8040;50.254;10.960;2022-11-14T09:16:47;98249.66;;;9.13;72.24
15884;BME280;8040;50.254;10.960;2022-11-14T09:19:31;98256.63;;;9.19;71.33
15884;BME280;8040;50.254;10.960;2022-11-14T09:22:15;98261.66;;;9.25;71.86
15884;BME280;8040;50.254;10.960;2022-11-14T09:24:59;98271.19;;;9.23;70.79
15884;BME280;8040;50.254;10.960;2022-11-14T09:27:43;98264.69;;;9.24;71.08
15884;BME280;8040;50.254;10.960;2022-11-14T09:30:27;98266.47;;;9.33;71.06
15884;BME280;8040;50.254;10.960;2022-11-14T09:33:11;98254.16;;;9.41;70.76
15884;BME280;8040;50.254;10.960;2022-11-14T09:35:56;98266.53;;;9.47;70.31
15884;BME280;8040;50.254;10.960;2022-11-14T09:38:41;98264.84;;;9.51;69.71
15884;BME280;8040;50.254;10.960;2022-11-14T09:41:30;98271.47;;;9.63;69.25
15884;BME280;8040;50.254;10.960;2022-11-14T09:47:12;98284.13;;;9.68;69.32
15884;BME280;8040;50.254;10.960;2022-11-14T09:50:03;98282.94;;;9.74;68.89
15884;BME280;8040;50.254;10.960;2022-11-14T09:52:55;98281.91;;;9.70;68.94
15884;BME280;8040;50.254;10.960;2022-11-14T09:55:40;98278.69;;;9.68;68.68
15884;BME280;8040;50.254;10.960;2022-11-14T09:58:24;98261.72;;;9.81;69.28
15884;BME280;8040;50.254;10.960;2022-11-14T10:01:30;98268.09;;;9.90;68.69
15884;BME280;8040;50.254;10.960;2022-11-14T10:10:28;98259.44;;;10.06;68.07
15884;BME280;8040;50.254;10.960;2022-11-14T10:16:05;98250.63;;;10.14;67.75
15884;BME280;8040;50.254;10.960;2022-11-14T10:24:37;98242.84;;;10.26;67.08
15884;BME280;8040;50.254;10.960;2022-11-14T10:27:26;98241.94;;;10.31;66.54
15884;BME280;8040;50.254;10.960;2022-11-14T10:30:15;98241.69;;;10.46;66.76
15884;BME280;8040;50.254;10.960;2022-11-14T10:41:30;98236.06;;;10.56;65.97
15884;BME280;8040;50.254;10.960;2022-11-14T10:44:24;98245.81;;;10.57;66.01
15884;BME280;8040;50.254;10.960;2022-11-14T10:47:11;98248.75;;;10.74;65.71
15884;BME280;8040;50.254;10.960;2022-11-14T10:49:55;98242.34;;;10.70;64.98
15884;BME280;8040;50.254;10.960;2022-11-14T10:52:43;98247.44;;;10.71;65.75
15884;BME280;8040;50.254;10.960;2022-11-14T10:55:28;98239.31;;;10.85;65.45
15884;BME280;8040;50.254;10.960;2022-11-14T10:58:12;98239.72;;;10.92;65.25
15884;BME280;8040;50.254;10.960;2022-11-14T11:01:30;98240.81;;;10.91;64.69
15884;BME280;8040;50.254;10.960;2022-11-14T11:04:12;98239.53;;;11.02;64.85
15884;BME280;8040;50.254;10.960;2022-11-14T11:07:18;98233.66;;;11.08;65.10
15884;BME280;8040;50.254;10.960;2022-11-14T11:10:20;98249.38;;;11.25;64.80
15884;BME280;8040;50.254;10.960;2022-11-14T11:13:31;98250.75;;;11.36;64.60
15884;BME280;8040;50.254;10.960;2022-11-14T11:16:18;98247.91;;;11.54;64.29
15884;BME280;8040;50.254;10.960;2022-11-14T11:22:21;98243.59;;;11.67;63.47
15884;BME280;8040;50.254;10.960;2022-11-14T11:28:19;98237.78;;;11.82;62.85
15884;BME280;8040;50.254;10.960;2022-11-14T11:31:04;98234.44;;;11.85;62.90
15884;BME280;8040;50.254;10.960;2022-11-14T11:33:48;98226.06;;;11.95;62.77
15884;BME280;8040;50.254;10.960;2022-11-14T11:36:35;98224.22;;;12.04;62.24
15884;BME280;8040;50.254;10.960;2022-11-14T11:39:23;98215.56;;;12.02;61.89
15884;BME280;8040;50.254;10.960;2022-11-14T11:42:10;98219.81;;;12.16;62.09
15884;BME280;8040;50.254;10.960;2022-11-14T11:44:56;98219.56;;;12.26;62.13
15884;BME280;8040;50.254;10.960;2022-11-14T11:47:41;98221.34;;;12.31;61.30
15884;BME280;8040;50.254;10.960;2022-11-14T11:50:29;98225.06;;;12.35;61.38
15884;BME280;8040;50.254;10.960;2022-11-14T11:56:25;98220.59;;;12.39;61.09
15884;BME280;8040;50.254;10.960;2022-11-14T11:59:20;98220.97;;;12.46;61.19
15884;BME280;8040;50.254;10.960;2022-11-14T12:02:28;98222.06;;;12.45;61.23
15884;BME280;8040;50.254;10.960;2022-11-14T12:05:30;98227.38;;;12.50;61.63
15884;BME280;8040;50.254;10.960;2022-11-14T12:08:29;98219.91;;;12.55;61.44
15884;BME280;8040;50.254;10.960;2022-11-14T12:11:19;98214.97;;;12.66;61.12
15884;BME280;8040;50.254;10.960;2022-11-14T12:17:09;98207.84;;;12.87;60.88
15884;BME280;8040;50.254;10.960;2022-11-14T12:32:06;98203.44;;;12.99;60.03
15884;BME280;8040;50.254;10.960;2022-11-14T12:34:51;98208.41;;;13.06;60.59
15884;BME280;8040;50.254;10.960;2022-11-14T12:37:37;98194.34;;;13.04;60.67
15884;BME280;8040;50.254;10.960;2022-11-14T12:40:30;98210.34;;;13.05;61.00
15884;BME280;8040;50.254;10.960;2022-11-14T12:46:18;98191.81;;;13.16;60.97
15884;BME280;8040;50.254;10.960;2022-11-14T13:01:28;98191.69;;;13.38;58.90
15884;BME280;8040;50.254;10.960;2022-11-14T13:04:43;98190.72;;;13.42;58.70
15884;BME280;8040;50.254;10.960;2022-11-14T13:07:40;98184.78;;;13.49;59.31
15884;BME280;8040;50.254;10.960;2022-11-14T13:10:35;98165.25;;;13.47;59.29
15884;BME280;8040;50.254;10.960;2022-11-14T13:13:20;98168.28;;;13.54;59.01
15884;BME280;8040;50.254;10.960;2022-11-14T13:16:30;98171.34;;;13.44;58.16
15884;BME280;8040;50.254;10.960;2022-11-14T13:19:44;98163.00;;;13.49;58.41
15884;BME280;8040;50.254;10.960;2022-11-14T13:22:48;98172.59;;;13.55;58.40
15884;BME280;8040;50.254;10.960;2022-11-14T13:25:32;98162.19;;;13.48;58.11
15884;BME280;8040;50.254;10.960;2022-11-14T13:28:42;98167.81;;;13.60;58.11
15884;BME280;8040;50.254;10.960;2022-11-14T13:31:48;98172.31;;;13.73;58.14
15884;BME280;8040;50.254;10.960;2022-11-14T13:51:58;98147.63;;;13.70;58.65
15884;BME280;8040;50.254;10.960;2022-11-14T13:54:49;98139.44;;;13.70;58.61
15884;BME280;8040;50.254;10.960;2022-11-14T13:57:44;98142.00;;;13.75;58.64
15884;BME280;8040;50.254;10.960;2022-11-14T14:03:36;98139.44;;;13.87;58.66
15884;BME280;8040;50.254;10.960;2022-11-14T14:06:39;98140.50;;;13.94;58.39
15884;BME280;8040;50.254;10.960;2022-11-14T14:09:31;98140.88;;;13.93;58.00
15884;BME280;8040;50.254;10.960;2022-11-14T14:16:05;98142.59;;;13.97;57.84
15884;BME280;8040;50.254;10.960;2022-11-14T14:21:18;98141.94;;;14.09;57.80
15884;BME280;8040;50.254;10.960;2022-11-14T14:27:00;98136.97;;;14.11;57.19
15884;BME280;8040;50.254;10.960;2022-11-14T14:35:49;98140.81;;;14.10;56.58
15884;BME280;8040;50.254;10.960;2022-11-14T14:38:34;98129.25;;;14.13;56.94
15884;BME280;8040;50.254;10.960;2022-11-14T14:41:19;98136.63;;;14.12;56.84
15884;BME280;8040;50.254;10.960;2022-11-14T14:44:03;98132.94;;;14.17;57.58
15884;BME280;8040;50.254;10.960;2022-11-14T14:46:48;98130.38;;;14.12;57.10
15884;BME280;8040;50.254;10.960;2022-11-14T14:49:36;98118.34;;;14.13;56.67
15884;BME280;8040;50.254;10.960;2022-11-14T14:52:25;98122.22;;;14.12;56.56
15884;BME280;8040;50.254;10.960;2022-11-14T14:55:17;98112.44;;;14.02;56.34
15884;BME280;8040;50.254;10.960;2022-11-14T14:58:14;98117.41;;;13.92;56.48
15884;BME280;8040;50.254;10.960;2022-11-14T15:01:00;98120.00;;;13.80;56.38
15884;BME280;8040;50.254;10.960;2022-11-14T15:03:47;98114.25;;;13.73;56.33
15884;BME280;8040;50.254;10.960;2022-11-14T15:06:33;98110.22;;;13.70;56.81
15884;BME280;8040;50.254;10.960;2022-11-14T15:09:18;98106.41;;;13.63;56.47
15884;BME280;8040;50.254;10.960;2022-11-14T15:12:04;98108.84;;;13.56;56.97
15884;BME280;8040;50.254;10.960;2022-11-14T15:14:48;98106.25;;;13.42;57.38
15884;BME280;8040;50.254;10.960;2022-11-14T15:17:31;98113.31;;;13.35;57.69
15884;BME280;8040;50.254;10.960;2022-11-14T15:20:19;98106.91;;;13.22;58.05
15884;BME280;8040;50.254;10.960;2022-11-14T15:23:04;98102.06;;;13.11;58.46
15884;BME280;8040;50.254;10.960;2022-11-14T15:25:49;98099.34;;;13.02;58.87
15884;BME280;8040;50.254;10.960;2022-11-14T15:28:43;98091.94;;;12.94;59.14
15884;BME280;8040;50.254;10.960;2022-11-14T15:31:28;98086.94;;;12.88;59.45
15884;BME280;8040;50.254;10.960;2022-11-14T15:34:31;98082.31;;;12.80;59.69
15884;BME280;8040;50.254;10.960;2022-11-14T15:46:50;98084.13;;;12.45;61.52
15884;BME280;8040;50.254;10.960;2022-11-14T15:49:27;98085.53;;;12.34;62.28
15884;BME280;8040;50.254;10.960;2022-11-14T15:52:18;98097.34;;;12.30;62.43
15884;BME280;8040;50.254;10.960;2022-11-14T15:55:09;98093.78;;;12.21;62.60
15884;BME280;8040;50.254;10.960;2022-11-14T15:57:54;98085.91;;;12.11;63.19
15884;BME280;8040;50.254;10.960;2022-11-14T16:00:39;98102.38;;;12.06;64.28
15884;BME280;8040;50.254;10.960;2022-11-14T16:03:26;98089.38;;;11.94;64.72
15884;BME280;8040;50.254;10.960;2022-11-14T16:06:10;98084.66;;;11.86;65.15
15884;BME280;8040;50.254;10.960;2022-11-14T16:08:54;98090.41;;;11.85;65.44
15884;BME280;8040;50.254;10.960;2022-11-14T16:11:38;98084.94;;;11.76;65.66
15884;BME280;8040;50.254;10.960;2022-11-14T16:14:22;98096.72;;;11.72;65.92
15884;BME280;8040;50.254;10.960;2022-11-14T16:17:13;98097.47;;;11.64;66.16
15884;BME280;8040;50.254;10.960;2022-11-14T16:19:58;98096.47;;;11.60;66.82
15884;BME280;8040;50.254;10.960;2022-11-14T16:22:44;98085.22;;;11.53;66.83
15884;BME280;8040;50.254;10.960;2022-11-14T16:25:29;98085.97;;;11.45;67.07
15884;BME280;8040;50.254;10.960;2022-11-14T16:28:13;98082.75;;;11.43;67.07
15884;BME280;8040;50.254;10.960;2022-11-14T16:30:57;98086.19;;;11.35;67.56
15884;BME280;8040;50.254;10.960;2022-11-14T16:33:41;98084.59;;;11.34;67.63
15884;BME280;8040;50.254;10.960;2022-11-14T16:36:25;98097.50;;;11.28;67.79
15884;BME280;8040;50.254;10.960;2022-11-14T16:42:21;98092.13;;;11.15;68.24
15884;BME280;8040;50.254;10.960;2022-11-14T16:45:05;98093.03;;;11.10;68.18
15884;BME280;8040;50.254;10.960;2022-11-14T16:47:49;98091.25;;;11.06;68.42
15884;BME280;8040;50.254;10.960;2022-11-14T16:50:33;98089.13;;;11.03;69.02